General O'Brien, Argentina
Current Conditions -  °F | °C
As of 3:30 AM on Friday 24 Oct 2014 (Local Time) from SAEZ Reporting Station
Broken Clouds Broken Clouds  
Wind Chill: 68°   Ceiling: 900
Heat Index: 68°   Visibility: 4mi
Dew Point: 66°   Wind: 8mph
Humidity: 94%   Direction: 140°SE
Pressure: 29.97"   Gusts: NA
Location:  34.91°S, 60.63°W
Report Text: SAEZ 240630Z 14007KT 7000 SCT005 BKN009 20/19 Q1015
Loading
Personal Weather Stations






























Interactive Weather Map
Tropical Storm Tracking
New forecast layout! Learn more

10-Day Weather Forecast

Advertisements
Track Severe Weather on mobile